Chelan — WCX7878 — position and weather

sailwx.info

Track history (hours):
 
Tides and Currents Weather Stations Pressure Air Temp Water Temp Dewpoint Dewpoint Depression Visibility Wind Speed Wind Dir Waves Ship Positions

Chelan

Owner: WASHINGTON, STATE OF; Department of Transportation, OLYMPIA, WA. More information available from US FCC via Universal Licensing System and Coast Guard Vessel Documentation Center.

Last reported at 2017-Oct-22 22:31 UTC. Time now 2017-Oct-22 22:57 UTC.
Position N 47°31' W 122°29'.

Length 117 m; draft 5.3 m.

Type: Passenger vessel. MMSI: 366709770.

Date/timePositionNaut miles runAvg speedWind from/ knotsBaromVisibWave heightAir tempDewpointWater temp
2017-Oct-22 22:31N 47°31' W 122°29'3 6.7
2017-Oct-22 22:00N 47°31' W 122°24'3 5.5
2017-Oct-22 21:30N 47°31' W 122°28'3 5.5
2017-Oct-22 21:00N 47°31' W 122°24'3 5.5
2017-Oct-22 20:30N 47°31' W 122°28'0 1.0
2017-Oct-22 20:01N 47°31' W 122°28'3 6.0
2017-Oct-22 19:30N 47°31' W 122°24'3 5.5
2017-Oct-22 19:01N 47°31' W 122°28'1 2.7
2017-Oct-22 18:30N 47°31' W 122°30'3 6.3
2017-Oct-22 18:00N 47°31' W 122°25'1 1.9
2017-Oct-22 17:30N 47°31' W 122°26'2 4.5
2017-Oct-22 17:00N 47°31' W 122°30'1 2.6
2017-Oct-22 16:31N 47°31' W 122°28'3 5.6
2017-Oct-22 16:01N 47°31' W 122°24'3 5.5
2017-Oct-22 15:31N 47°31' W 122°28'0 0.1
2017-Oct-22 15:01N 47°31' W 122°28'3 5.6
2017-Oct-22 14:30N 47°31' W 122°24'3 5.4
2017-Oct-22 14:01N 47°31' W 122°28'0 0.4
2017-Oct-22 13:30N 47°31' W 122°28'3 5.6
2017-Oct-22 13:00N 47°31' W 122°24'3 5.6
2017-Oct-22 12:31N 47°31' W 122°28'0 0.0
2017-Oct-22 12:01N 47°31' W 122°28'0 0.0
2017-Oct-22 11:30N 47°31' W 122°28'0 0.0
2017-Oct-22 11:00N 47°31' W 122°28'0 0.0
2017-Oct-22 10:30N 47°31' W 122°28'0 0.0
2017-Oct-22 10:00N 47°31' W 122°28'0 0.0
2017-Oct-22 09:30N 47°31' W 122°28'0 0.0
2017-Oct-22 09:00N 47°31' W 122°28'0 0.0
2017-Oct-22 08:30N 47°31' W 122°28'0 0.0
2017-Oct-22 08:00N 47°31' W 122°28'0 0.0
2017-Oct-22 07:30N 47°31' W 122°28'0 0.0
2017-Oct-22 07:00N 47°31' W 122°28'0 0.0
2017-Oct-22 06:30N 47°31' W 122°28'0 0.0
2017-Oct-22 06:00N 47°31' W 122°28'0 0.0
2017-Oct-22 05:30N 47°31' W 122°28'0 0.0
2017-Oct-22 05:00N 47°31' W 122°28'0 0.0
2017-Oct-22 04:30N 47°31' W 122°28'0 0.0
2017-Oct-22 04:00N 47°31' W 122°28'0 0.0
2017-Oct-22 03:30N 47°31' W 122°28'3 5.6
2017-Oct-22 03:00N 47°31' W 122°24'3 5.6
2017-Oct-22 02:30N 47°31' W 122°28'0 0.5
2017-Oct-22 02:01N 47°31' W 122°28'3 5.5
2017-Oct-22 01:30N 47°31' W 122°24'3 5.5
2017-Oct-22 01:00N 47°31' W 122°28'1 2.7
2017-Oct-22 00:30N 47°31' W 122°30'2 4.5
2017-Oct-22 00:00N 47°31' W 122°26'2 3.2
2017-Oct-21 23:30N 47°31' W 122°24'3 5.3
2017-Oct-21 23:01N 47°31' W 122°28'0 0.3
2017-Oct-21 22:31N 47°31' W 122°28'3 5.7
2017-Oct-21 22:00N 47°31' W 122°24'3 5.5
2017-Oct-21 21:30N 47°31' W 122°28'3 5.6
2017-Oct-21 21:01N 47°31' W 122°24'3 5.5
2017-Oct-21 20:30N 47°31' W 122°28'1 1.7
2017-Oct-21 20:01N 47°31' W 122°29'3 6.8
2017-Oct-21 19:30N 47°31' W 122°24'2 3.1
2017-Oct-21 19:01N 47°31' W 122°26'2 5.0
2017-Oct-21 18:31N 47°31' W 122°30'3 5.1
2017-Oct-21 18:01N 47°31' W 122°26'1 1.1
2017-Oct-21 17:31N 47°31' W 122°25'3 5.9
2017-Oct-21 17:00N 47°31' W 122°30'1 2.6
2017-Oct-21 16:30N 47°31' W 122°28'3 5.6
2017-Oct-21 16:01N 47°31' W 122°24'3 5.6
2017-Oct-21 15:31N 47°31' W 122°28'0 0.8
2017-Oct-21 15:00N 47°31' W 122°28'0 0.1
2017-Oct-21 14:01N 47°31' W 122°28'0 0.1
2017-Oct-21 13:30N 47°31' W 122°28'3 5.6
2017-Oct-21 13:00N 47°31' W 122°24'3 5.5
2017-Oct-21 12:30N 47°31' W 122°28'0 0.0
2017-Oct-21 12:00N 47°31' W 122°28'0 0.0
2017-Oct-21 11:30N 47°31' W 122°28'0 0.0
2017-Oct-21 11:00N 47°31' W 122°28'0 0.0
2017-Oct-21 10:30N 47°31' W 122°28'0 0.0
2017-Oct-21 10:00N 47°31' W 122°28'0 0.0
2017-Oct-21 09:30N 47°31' W 122°28'0 0.0
2017-Oct-21 09:00N 47°31' W 122°28'0 0.0
2017-Oct-21 08:30N 47°31' W 122°28'0 0.0
2017-Oct-21 08:00N 47°31' W 122°28'0 0.0
2017-Oct-21 07:30N 47°31' W 122°28'0 0.0
2017-Oct-21 07:00N 47°31' W 122°28'0 0.0
2017-Oct-21 06:30N 47°31' W 122°28'0 0.0
2017-Oct-21 06:00N 47°31' W 122°28'0 0.0
2017-Oct-21 05:30N 47°31' W 122°28'0 0.0
2017-Oct-21 05:00N 47°31' W 122°28'0 0.0
2017-Oct-21 04:30N 47°31' W 122°28'0 0.0
2017-Oct-21 04:00N 47°31' W 122°28'0 0.0
2017-Oct-21 03:30N 47°31' W 122°28'0 0.0
2017-Oct-21 03:00N 47°31' W 122°28'0 0.0
2017-Oct-21 02:30N 47°31' W 122°28'3 5.6
2017-Oct-21 02:00N 47°31' W 122°24'3 5.5
2017-Oct-21 01:30N 47°31' W 122°28'3 5.5
2017-Oct-21 01:00N 47°31' W 122°24'3 5.6
2017-Oct-21 00:30N 47°31' W 122°28'1 2.7
2017-Oct-21 00:01N 47°31' W 122°30'3 6.8
2017-Oct-20 23:31N 47°32' W 122°25'1 1.4
2017-Oct-20 23:00N 47°32' W 122°26'2 3.2
2017-Oct-20 22:30N 47°31' W 122°28'3 5.6
2017-Oct-20 22:01N 47°31' W 122°24'4 8.1
2017-Oct-20 21:30N 47°31' W 122°30'2 3.0
2017-Oct-20 21:01N 47°31' W 122°28'2 4.8
2017-Oct-20 20:30N 47°31' W 122°24'4 7.9
2017-Oct-20 20:01N 47°31' W 122°30'2 4.0
2017-Oct-20 19:31N 47°31' W 122°27'1 3.0
2017-Oct-20 19:01N 47°31' W 122°25'2 4.5
2017-Oct-20 18:31N 47°31' W 122°28'3 5.6
2017-Oct-20 18:00N 47°31' W 122°24'3 5.6
2017-Oct-20 17:30N 47°31' W 122°28'1 1.1
2017-Oct-20 17:01N 47°31' W 122°28'3 6.1
2017-Oct-20 16:30N 47°31' W 122°24'3 5.5
2017-Oct-20 16:00N 47°31' W 122°28'2 3.8
2017-Oct-20 15:30N 47°31' W 122°25'1 1.8
2017-Oct-20 15:01N 47°31' W 122°26'1 1.0
2017-Oct-20 14:00N 47°31' W 122°28'1 2.7
2017-Oct-20 13:30N 47°31' W 122°30'2 3.3
2017-Oct-20 13:00N 47°31' W 122°27'2 3.6
2017-Oct-20 12:31N 47°31' W 122°25'3 6.8
2017-Oct-20 12:00N 47°31' W 122°30'4 7.3
2017-Oct-20 11:30N 47°31' W 122°24'2 4.8
2017-Oct-20 11:01N 47°31' W 122°28'0 0.1
2017-Oct-20 10:30N 47°31' W 122°28'0 0.0
2017-Oct-20 10:01N 47°31' W 122°28'0 0.0
2017-Oct-20 09:31N 47°31' W 122°28'0 0.0
2017-Oct-20 09:00N 47°31' W 122°28'0 0.0
2017-Oct-20 08:31N 47°31' W 122°28'0 0.0
2017-Oct-20 08:01N 47°31' W 122°28'0 0.0
2017-Oct-20 07:31N 47°31' W 122°28'0 0.0
2017-Oct-20 07:01N 47°31' W 122°28'0 0.0
2017-Oct-20 06:30N 47°31' W 122°28'0 0.0
2017-Oct-20 06:01N 47°31' W 122°28'0 0.0
2017-Oct-20 05:31N 47°31' W 122°28'0 0.0
2017-Oct-20 05:01N 47°31' W 122°28'0 0.0
2017-Oct-20 04:31N 47°31' W 122°28'0 0.0
2017-Oct-20 04:01N 47°31' W 122°28'0 0.0
2017-Oct-20 03:30N 47°31' W 122°28'0 0.0
2017-Oct-20 03:01N 47°31' W 122°28'0 0.0
2017-Oct-20 02:31N 47°31' W 122°28'3 5.5
2017-Oct-20 02:00N 47°31' W 122°24'3 5.5
2017-Oct-20 01:30N 47°31' W 122°28'3 5.5
2017-Oct-20 01:00N 47°31' W 122°24'3 5.6
2017-Oct-20 00:30N 47°31' W 122°28'1 2.7
2017-Oct-20 00:00N 47°31' W 122°30'3 6.6
2017-Oct-19 23:30N 47°31' W 122°25'0 0.9
2017-Oct-19 23:00N 47°31' W 122°25'2 4.5
2017-Oct-19 22:30N 47°31' W 122°28'3 5.6
2017-Oct-19 22:00N 47°31' W 122°24'4 8.1
2017-Oct-19 21:30N 47°31' W 122°30'1 2.6
2017-Oct-19 21:01N 47°31' W 122°28'3 5.6
2017-Oct-19 20:30N 47°31' W 122°24'4 8.1
2017-Oct-19 20:00N 47°31' W 122°30'2 4.3
2017-Oct-19 19:30N 47°31' W 122°27'1 1.4
2017-Oct-19 19:00N 47°31' W 122°26'1 3.0
2017-Oct-19 18:31N 47°31' W 122°28'3 5.6
2017-Oct-19 18:01N 47°31' W 122°24'3 5.5
2017-Oct-19 17:30N 47°31' W 122°28'0 0.5
2017-Oct-19 17:01N 47°31' W 122°28'3 5.7
2017-Oct-19 16:30N 47°31' W 122°24'3 5.6
2017-Oct-19 16:01N 47°31' W 122°28'2 4.8
2017-Oct-19 15:30N 47°31' W 122°24'2 4.6
2017-Oct-19 15:00N 47°31' W 122°28'3 5.4
2017-Oct-19 14:30N 47°31' W 122°24'3 5.5
2017-Oct-19 14:00N 47°31' W 122°28'1 2.7
2017-Oct-19 13:30N 47°31' W 122°30'2 3.4
2017-Oct-19 13:00N 47°31' W 122°27'2 3.6
2017-Oct-19 12:31N 47°31' W 122°25'4 7.0
2017-Oct-19 12:00N 47°31' W 122°30'4 7.2
2017-Oct-19 11:30N 47°31' W 122°25'2 4.7
2017-Oct-19 11:00N 47°31' W 122°28'0 0.1
2017-Oct-19 10:30N 47°31' W 122°28'0 0.0
2017-Oct-19 10:00N 47°31' W 122°28'0 0.0
2017-Oct-19 09:30N 47°31' W 122°28'0 0.0
2017-Oct-19 09:00N 47°31' W 122°28'0 0.0
2017-Oct-19 08:30N 47°31' W 122°28'0 0.0
2017-Oct-19 08:00N 47°31' W 122°28'0 0.0
2017-Oct-19 07:30N 47°31' W 122°28'0 0.0
2017-Oct-19 07:00N 47°31' W 122°28'0 0.0
2017-Oct-19 06:30N 47°31' W 122°28'0 0.0
2017-Oct-19 06:00N 47°31' W 122°28'0 0.0
2017-Oct-19 05:30N 47°31' W 122°28'0 0.0
2017-Oct-19 05:00N 47°31' W 122°28'0 0.0
2017-Oct-19 04:30N 47°31' W 122°28'0 0.0
2017-Oct-19 04:00N 47°31' W 122°28'0 0.0
2017-Oct-19 03:30N 47°31' W 122°28'0 0.0
2017-Oct-19 03:00N 47°31' W 122°28'0 0.2
2017-Oct-19 02:30N 47°31' W 122°28'3 5.4
2017-Oct-19 02:00N 47°31' W 122°24'3 5.6
2017-Oct-19 01:30N 47°31' W 122°28'3 5.6
2017-Oct-19 01:00N 47°31' W 122°24'3 5.5
2017-Oct-19 00:30N 47°31' W 122°28'1 2.7
2017-Oct-19 00:00N 47°31' W 122°30'3 6.5
2017-Oct-18 23:30N 47°32' W 122°25'0 0.7
2017-Oct-18 23:00N 47°32' W 122°26'2 3.5
2017-Oct-18 22:31N 47°31' W 122°28'3 5.6
2017-Oct-18 22:00N 47°31' W 122°24'4 8.1
2017-Oct-18 21:30N 47°31' W 122°30'1 2.6
2017-Oct-18 21:00N 47°31' W 122°28'3 5.2
2017-Oct-18 20:30N 47°31' W 122°24'4 7.7
2017-Oct-18 20:00N 47°31' W 122°30'2 4.1
2017-Oct-18 19:31N 47°31' W 122°27'1 2.8
2017-Oct-18 19:00N 47°31' W 122°25'2 4.4
2017-Oct-18 18:31N 47°31' W 122°28'3 5.6
2017-Oct-18 18:00N 47°31' W 122°24'3 5.5
2017-Oct-18 17:30N 47°31' W 122°28'0 0.9
2017-Oct-18 17:01N 47°31' W 122°28'3 6.0
2017-Oct-18 16:30N 47°31' W 122°24'3 5.6
2017-Oct-18 16:00N 47°31' W 122°28'2 4.4
2017-Oct-18 15:30N 47°32' W 122°25'2 3.7
2017-Oct-18 15:00N 47°31' W 122°27'0 0.3
2017-Oct-18 14:00N 47°31' W 122°28'1 2.7
2017-Oct-18 13:30N 47°31' W 122°30'2 3.4
2017-Oct-18 13:00N 47°31' W 122°27'2 3.0
2017-Oct-18 12:31N 47°31' W 122°25'3 6.4
2017-Oct-18 12:00N 47°31' W 122°30'4 7.8
2017-Oct-18 11:31N 47°31' W 122°24'3 5.2
2017-Oct-18 11:00N 47°31' W 122°28'0 0.3
2017-Oct-18 10:31N 47°31' W 122°28'0 0.0
2017-Oct-18 10:01N 47°31' W 122°28'0 0.0
2017-Oct-18 09:31N 47°31' W 122°28'0 0.0
2017-Oct-18 09:01N 47°31' W 122°28'0 0.0
2017-Oct-18 08:31N 47°31' W 122°28'0 0.0
2017-Oct-18 08:01N 47°31' W 122°28'0 0.0
2017-Oct-18 07:31N 47°31' W 122°28'0 0.0
2017-Oct-18 07:01N 47°31' W 122°28'0 0.0
2017-Oct-18 06:31N 47°31' W 122°28'0 0.0
2017-Oct-18 06:01N 47°31' W 122°28'0 0.0
2017-Oct-18 05:30N 47°31' W 122°28'0 0.0
2017-Oct-18 04:23N 47°31' W 122°28'0 0.0
2017-Oct-18 04:00N 47°31' W 122°28'0 0.0
2017-Oct-18 03:30N 47°31' W 122°28'0 0.0
2017-Oct-18 03:00N 47°31' W 122°28'0 0.0
2017-Oct-18 02:30N 47°31' W 122°28'3 5.6
2017-Oct-18 02:00N 47°31' W 122°24'3 5.5
2017-Oct-18 01:31N 47°31' W 122°28'3 5.5
2017-Oct-18 01:00N 47°31' W 122°24'3 5.6
2017-Oct-18 00:31N 47°31' W 122°28'1 2.7
2017-Oct-18 00:01N 47°31' W 122°30'2 4.5
2017-Oct-17 23:30N 47°31' W 122°27'1 1.5
2017-Oct-17 23:00N 47°31' W 122°25'2 3.5
2017-Oct-17 22:30N 47°31' W 122°28'3 5.8
2017-Oct-17 22:00N 47°31' W 122°24'4 8.1
2017-Oct-17 21:30N 47°31' W 122°30'1 2.6
2017-Oct-17 21:01N 47°31' W 122°28'3 5.6
2017-Oct-17 20:30N 47°31' W 122°24'4 8.1
2017-Oct-17 20:00N 47°31' W 122°30'2 4.1
2017-Oct-17 19:30N 47°31' W 122°27'1 2.5
2017-Oct-17 19:01N 47°31' W 122°25'2 4.1
2017-Oct-17 18:31N 47°31' W 122°28'3 5.6
2017-Oct-17 18:00N 47°31' W 122°24'3 5.6
2017-Oct-17 17:30N 47°31' W 122°28'1 1.1
2017-Oct-17 17:00N 47°31' W 122°28'3 6.0
2017-Oct-17 16:31N 47°31' W 122°24'3 5.5
2017-Oct-17 16:00N 47°31' W 122°28'2 3.5
2017-Oct-17 15:30N 47°31' W 122°25'1 1.5
2017-Oct-17 15:01N 47°31' W 122°26'2 3.6
2017-Oct-17 14:31N 47°31' W 122°24'3 5.4
2017-Oct-17 14:00N 47°31' W 122°28'1 2.7
2017-Oct-17 13:30N 47°31' W 122°30'2 4.6
2017-Oct-17 13:01N 47°31' W 122°26'1 1.5
2017-Oct-17 12:31N 47°31' W 122°25'3 6.1
2017-Oct-17 12:00N 47°31' W 122°30'3 6.2
2017-Oct-17 11:31N 47°31' W 122°25'2 3.7
2017-Oct-17 11:00N 47°31' W 122°28'0 0.0
2017-Oct-17 10:30N 47°31' W 122°28'0 0.0
2017-Oct-17 10:00N 47°31' W 122°28'0 0.0
2017-Oct-17 09:30N 47°31' W 122°28'0 0.0
2017-Oct-17 09:00N 47°31' W 122°28'0 0.0
2017-Oct-17 08:30N 47°31' W 122°28'0 0.0
2017-Oct-17 08:00N 47°31' W 122°28'0 0.0
2017-Oct-17 07:30N 47°31' W 122°28'0 0.0
2017-Oct-17 07:01N 47°31' W 122°28'0 0.0
2017-Oct-17 06:30N 47°31' W 122°28'0 0.0
2017-Oct-17 06:00N 47°31' W 122°28'0 0.0
2017-Oct-17 05:30N 47°31' W 122°28'0 0.0
2017-Oct-17 05:00N 47°31' W 122°28'0 0.0
2017-Oct-17 04:30N 47°31' W 122°28'0 0.0
2017-Oct-17 04:00N 47°31' W 122°28'0 0.0
2017-Oct-17 03:30N 47°31' W 122°28'0 0.0
2017-Oct-17 03:00N 47°31' W 122°28'0 0.0
2017-Oct-17 02:30N 47°31' W 122°28'3 5.5
2017-Oct-17 02:00N 47°31' W 122°24'3 5.5
2017-Oct-17 01:30N 47°31' W 122°28'3 5.6
2017-Oct-17 01:01N 47°31' W 122°24'3 5.5
2017-Oct-17 00:30N 47°31' W 122°28'1 2.7
2017-Oct-17 00:00N 47°31' W 122°30'4 8.1
2017-Oct-16 23:30N 47°31' W 122°24'3 5.6
2017-Oct-16 23:00N 47°31' W 122°28'0 0.6
2017-Oct-16 22:30N 47°31' W 122°28'3 5.7
2017-Oct-16 22:00N 47°31' W 122°24'4 8.1
2017-Oct-16 21:30N 47°31' W 122°30'1 2.6
2017-Oct-16 21:01N 47°31' W 122°28'3 5.3
2017-Oct-16 20:30N 47°31' W 122°24'4 7.8
2017-Oct-16 20:00N 47°31' W 122°30'2 4.2
2017-Oct-16 19:31N 47°31' W 122°27'1 1.8
2017-Oct-16 19:01N 47°31' W 122°25'1 2.8
2017-Oct-16 18:30N 47°31' W 122°27'2 4.8
2017-Oct-16 18:00N 47°31' W 122°24'3 5.4
2017-Oct-16 17:31N 47°31' W 122°28'0 0.4
2017-Oct-16 17:00N 47°31' W 122°28'3 5.6
2017-Oct-16 16:31N 47°31' W 122°24'3 5.6
2017-Oct-16 16:01N 47°31' W 122°28'2 3.7
2017-Oct-16 15:30N 47°31' W 122°25'1 1.4
2017-Oct-16 15:00N 47°31' W 122°26'2 3.3
2017-Oct-16 14:30N 47°31' W 122°24'4 4.1
2017-Oct-16 13:30N 47°31' W 122°30'2 3.5
2017-Oct-16 13:00N 47°31' W 122°27'2 3.7
2017-Oct-16 12:31N 47°31' W 122°25'4 7.1
2017-Oct-16 12:01N 47°31' W 122°30'4 7.5
2017-Oct-16 11:30N 47°31' W 122°24'2 5.0
2017-Oct-16 11:00N 47°31' W 122°28'3 6.6
2017-Oct-16 10:30N 47°34' W 122°28'816.4
2017-Oct-16 10:00N 47°42' W 122°28'816.0
2017-Oct-16 09:30N 47°50' W 122°28'816.1
2017-Oct-16 09:00N 47°57' W 122°34'1016.9
2017-Oct-16 08:26N 48°06' W 122°40'918.4
2017-Oct-16 07:58N 48°13' W 122°48'816.7
2017-Oct-16 07:30N 48°20' W 122°47'816.4
2017-Oct-16 07:00N 48°28' W 122°44'3 5.8
2017-Oct-16 06:29N 48°30' W 122°41'4 8.9
2017-Oct-16 06:00N 48°32' W 122°47'815.2
2017-Oct-16 05:30N 48°36' W 122°57'2 4.8
2017-Oct-16 05:00N 48°35' W 122°53'815.1
2017-Oct-16 04:30N 48°31' W 122°43'2 3.7
2017-Oct-16 04:00N 48°31' W 122°40'714.9
2017-Oct-16 03:31N 48°33' W 122°51'4 8.7
2017-Oct-16 03:00N 48°36' W 122°57'1 2.6
2017-Oct-16 02:30N 48°35' W 122°55'714.5
2017-Oct-16 02:00N 48°31' W 122°46'3 5.8
2017-Oct-16 01:25N 48°30' W 122°41'3 6.5
2017-Oct-16 01:01N 48°31' W 122°44'815.3
2017-Oct-16 00:30N 48°35' W 122°54'2 3.2
2017-Oct-16 00:00N 48°36' W 122°57'2 4.8
2017-Oct-15 23:30N 48°35' W 122°53'815.5
2017-Oct-15 23:00N 48°31' W 122°43'2 2.5
2017-Oct-15 22:19N 48°30' W 122°41'0 0.2
2017-Oct-15 22:00N 48°30' W 122°41'714.2
2017-Oct-15 21:30N 48°33' W 122°51'612.6
2017-Oct-15 21:00N 48°33' W 123°00'1 1.4
2017-Oct-15 20:31N 48°32' W 123°01'510.1
2017-Oct-15 20:00N 48°37' W 123°05'816.4
2017-Oct-15 19:30N 48°38' W 123°17'5 3.8
2017-Oct-15 18:18N 48°39' W 123°24'311.0
2017-Oct-15 18:01N 48°39' W 123°19'815.7
2017-Oct-15 17:30N 48°38' W 123°07'713.8
2017-Oct-15 17:00N 48°32' W 123°01'1 1.4
2017-Oct-15 16:30N 48°33' W 122°60'612.7
2017-Oct-15 16:00N 48°33' W 122°50'712.9
2017-Oct-15 15:29N 48°30' W 122°41'2 3.4
2017-Oct-15 15:00N 48°31' W 122°43'9 9.5
2017-Oct-15 14:00N 48°35' W 122°56'1 1.5
2017-Oct-15 13:24N 48°36' W 122°57'511.9
2017-Oct-15 13:00N 48°33' W 122°51'714.1
2017-Oct-15 12:30N 48°30' W 122°41'0 0.0
2017-Oct-15 12:00N 48°30' W 122°41'0 0.0
2017-Oct-15 11:30N 48°30' W 122°41'0 0.0
2017-Oct-15 10:42N 48°30' W 122°41'0 0.0
2017-Oct-15 10:28N 48°30' W 122°41'0 0.0
2017-Oct-15 09:55N 48°30' W 122°41'0 0.0
2017-Oct-15 09:30N 48°30' W 122°41'0 0.0
2017-Oct-15 08:58N 48°30' W 122°41'0 0.0
2017-Oct-15 08:29N 48°30' W 122°41'0 0.0
2017-Oct-15 07:59N 48°30' W 122°41'0 0.0
2017-Oct-15 07:29N 48°30' W 122°41'0 0.0
2017-Oct-15 06:59N 48°30' W 122°41'0 0.0
2017-Oct-15 06:30N 48°30' W 122°41'0 0.0
2017-Oct-15 06:00N 48°30' W 122°41'612.7
2017-Oct-15 05:30N 48°32' W 122°50'611.0
2017-Oct-15 04:59N 48°36' W 122°57'3 7.3
2017-Oct-15 04:31N 48°34' W 122°52'815.4
2017-Oct-15 04:01N 48°31' W 122°41'1 2.1
2017-Oct-15 03:31N 48°31' W 122°43'815.4
2017-Oct-15 03:01N 48°35' W 122°53'2 4.4
2017-Oct-15 02:30N 48°36' W 122°56'4 8.5
2017-Oct-15 02:00N 48°33' W 122°51'714.7
2017-Oct-15 01:30N 48°30' W 122°41'1 1.7
2017-Oct-15 01:00N 48°31' W 122°41'714.9
2017-Oct-15 00:30N 48°34' W 122°52'4 7.6
2017-Oct-15 00:00N 48°36' W 122°57'1 1.8
2017-Oct-14 23:30N 48°35' W 122°56'612.3
2017-Oct-14 23:00N 48°32' W 122°48'5 5.1
2017-Oct-14 22:01N 48°30' W 122°41'0 2.9
2017-Oct-14 22:00N 48°30' W 122°41'713.9
2017-Oct-14 21:30N 48°33' W 122°50'612.7
2017-Oct-14 21:01N 48°33' W 123°00'1 1.4
2017-Oct-14 20:30N 48°32' W 123°01'5 9.8
2017-Oct-14 20:00N 48°37' W 123°04'816.2
2017-Oct-14 19:30N 48°39' W 123°16'5 6.8
2017-Oct-14 18:44N 48°39' W 123°24'0 0.4
2017-Oct-14 18:30N 48°39' W 123°24'714.3
2017-Oct-14 18:00N 48°38' W 123°13'714.5
2017-Oct-14 17:30N 48°35' W 123°03'3 7.0
2017-Oct-14 17:00N 48°32' W 123°01'611.8
2017-Oct-14 16:31N 48°35' W 122°53'815.2
2017-Oct-14 16:00N 48°31' W 122°42'1 1.8
2017-Oct-14 15:12N 48°30' W 122°41'211.1
2017-Oct-14 15:00N 48°32' W 122°43'714.0
2017-Oct-14 14:31N 48°34' W 122°53'2 4.1
2017-Oct-14 14:00N 48°35' W 122°56'1 1.8
2017-Oct-14 13:30N 48°36' W 122°57'613.0
2017-Oct-14 13:00N 48°32' W 122°49'610.7
2017-Oct-14 12:29N 48°30' W 122°41'0 0.0
2017-Oct-14 11:58N 48°30' W 122°41'0 0.0
2017-Oct-14 08:40N 48°30' W 122°41'0 0.0
2017-Oct-14 08:19N 48°30' W 122°41'0 0.0
2017-Oct-14 07:54N 48°30' W 122°41'0 0.0
2017-Oct-14 07:21N 48°30' W 122°41'0 0.0
2017-Oct-14 07:00N 48°30' W 122°41'0 0.0
2017-Oct-14 06:30N 48°30' W 122°41'3 6.4
2017-Oct-14 06:00N 48°31' W 122°45'815.8
2017-Oct-14 05:30N 48°35' W 122°55'0 0.7
2017-Oct-14 05:00N 48°35' W 122°56'713.0
2017-Oct-14 04:30N 48°32' W 122°47'5 7.9
2017-Oct-14 03:55N 48°31' W 122°41'614.6
2017-Oct-14 03:31N 48°32' W 122°49'612.5
2017-Oct-14 03:00N 48°36' W 122°57'1 2.1
2017-Oct-14 02:31N 48°35' W 122°55'815.0
2017-Oct-14 02:00N 48°31' W 122°45'3 5.7
2017-Oct-14 01:25N 48°30' W 122°41'2 5.6
2017-Oct-14 01:01N 48°31' W 122°44'815.3
2017-Oct-14 00:31N 48°35' W 122°54'2 3.9
2017-Oct-14 00:00N 48°36' W 122°57'3 6.1
2017-Oct-13 23:30N 48°35' W 122°53'815.1
2017-Oct-13 23:01N 48°31' W 122°42'1 2.2
2017-Oct-13 22:22N 48°30' W 122°41'0 0.6
2017-Oct-13 22:00N 48°31' W 122°40'714.7
2017-Oct-13 21:30N 48°33' W 122°51'612.9
2017-Oct-13 21:00N 48°33' W 123°00'1 1.0
2017-Oct-13 20:30N 48°32' W 123°01'510.4
2017-Oct-13 20:00N 48°37' W 123°05'815.9
2017-Oct-13 19:30N 48°38' W 123°17'5 9.2
2017-Oct-13 18:59N 48°39' W 123°24'0 0.0
2017-Oct-13 18:30N 48°39' W 123°24'510.8
2017-Oct-13 18:00N 48°38' W 123°16'714.5
2017-Oct-13 17:31N 48°37' W 123°05'611.3
2017-Oct-13 17:00N 48°32' W 123°01'3 5.1
2017-Oct-13 16:30N 48°32' W 122°57'611.6
2017-Oct-13 16:00N 48°32' W 122°48'5 9.7
2017-Oct-13 15:28N 48°30' W 122°41'2 4.3
2017-Oct-13 15:01N 48°32' W 122°43'714.1
2017-Oct-13 14:30N 48°34' W 122°53'2 4.1
2017-Oct-13 14:00N 48°35' W 122°56'1 1.8
2017-Oct-13 13:29N 48°36' W 122°57'510.5
2017-Oct-13 13:01N 48°33' W 122°50'713.9
2017-Oct-13 12:30N 48°30' W 122°41'0 0.1
2017-Oct-13 11:58N 48°30' W 122°41'0 0.0
2017-Oct-13 11:30N 48°30' W 122°41'0 0.0
2017-Oct-13 10:59N 48°30' W 122°41'0 0.0
2017-Oct-13 10:29N 48°30' W 122°41'0 0.0
2017-Oct-13 09:42N 48°30' W 122°41'0 0.0
2017-Oct-13 09:26N 48°30' W 122°41'0 0.0
2017-Oct-13 06:31N 48°30' W 122°41'0 0.0
2017-Oct-13 06:30N 48°30' W 122°41'3 6.7
2017-Oct-13 06:00N 48°31' W 122°45'815.7
2017-Oct-13 05:30N 48°35' W 122°56'0 0.3
2017-Oct-13 05:01N 48°35' W 122°56'815.3
2017-Oct-13 04:30N 48°31' W 122°46'3 6.8
2017-Oct-13 04:00N 48°31' W 122°41'713.4
2017-Oct-13 03:31N 48°32' W 122°50'610.9
2017-Oct-13 03:00N 48°36' W 122°57'2 4.8
2017-Oct-13 02:30N 48°35' W 122°53'815.3
2017-Oct-13 02:00N 48°31' W 122°43'2 3.5
2017-Oct-13 01:29N 48°30' W 122°41'2 4.4
2017-Oct-13 01:00N 48°31' W 122°43'815.2
2017-Oct-13 00:30N 48°35' W 122°54'2 4.4
2017-Oct-13 00:00N 48°36' W 122°57'2 4.1
2017-Oct-12 23:30N 48°35' W 122°54'815.4
2017-Oct-12 23:01N 48°31' W 122°44'  
Track history (hours):
 
Tides and Currents Weather Stations Pressure Air Temp Water Temp Dewpoint Dewpoint Depression Visibility Wind Speed Wind Dir Waves Ship Positions

Chelan

Owner: WASHINGTON, STATE OF; Department of Transportation, OLYMPIA, WA. More information available from US FCC via Universal Licensing System and Coast Guard Vessel Documentation Center.

Last reported at 2017-Oct-22 22:31 UTC. Time now 2017-Oct-22 22:57 UTC.
Position N 47°31' W 122°29'.

Length 117 m; draft 5.3 m.

Type: Passenger vessel. MMSI: 366709770.

Date/timePositionNaut miles runAvg speedWind from/ knotsBaromVisibWave heightAir tempDewpointWater temp
2017-Oct-22 22:31N 47°31' W 122°29'3 6.7
2017-Oct-22 22:00N 47°31' W 122°24'3 5.5
2017-Oct-22 21:30N 47°31' W 122°28'3 5.5
2017-Oct-22 21:00N 47°31' W 122°24'3 5.5
2017-Oct-22 20:30N 47°31' W 122°28'0 1.0
2017-Oct-22 20:01N 47°31' W 122°28'3 6.0
2017-Oct-22 19:30N 47°31' W 122°24'3 5.5
2017-Oct-22 19:01N 47°31' W 122°28'1 2.7
2017-Oct-22 18:30N 47°31' W 122°30'3 6.3
2017-Oct-22 18:00N 47°31' W 122°25'1 1.9
2017-Oct-22 17:30N 47°31' W 122°26'2 4.5
2017-Oct-22 17:00N 47°31' W 122°30'1 2.6
2017-Oct-22 16:31N 47°31' W 122°28'3 5.6
2017-Oct-22 16:01N 47°31' W 122°24'3 5.5
2017-Oct-22 15:31N 47°31' W 122°28'0 0.1
2017-Oct-22 15:01N 47°31' W 122°28'3 5.6
2017-Oct-22 14:30N 47°31' W 122°24'3 5.4
2017-Oct-22 14:01N 47°31' W 122°28'0 0.4
2017-Oct-22 13:30N 47°31' W 122°28'3 5.6
2017-Oct-22 13:00N 47°31' W 122°24'3 5.6
2017-Oct-22 12:31N 47°31' W 122°28'0 0.0
2017-Oct-22 12:01N 47°31' W 122°28'0 0.0
2017-Oct-22 11:30N 47°31' W 122°28'0 0.0
2017-Oct-22 11:00N 47°31' W 122°28'0 0.0
2017-Oct-22 10:30N 47°31' W 122°28'0 0.0
2017-Oct-22 10:00N 47°31' W 122°28'0 0.0
2017-Oct-22 09:30N 47°31' W 122°28'0 0.0
2017-Oct-22 09:00N 47°31' W 122°28'0 0.0
2017-Oct-22 08:30N 47°31' W 122°28'0 0.0
2017-Oct-22 08:00N 47°31' W 122°28'0 0.0
2017-Oct-22 07:30N 47°31' W 122°28'0 0.0
2017-Oct-22 07:00N 47°31' W 122°28'0 0.0
2017-Oct-22 06:30N 47°31' W 122°28'0 0.0
2017-Oct-22 06:00N 47°31' W 122°28'0 0.0
2017-Oct-22 05:30N 47°31' W 122°28'0 0.0
2017-Oct-22 05:00N 47°31' W 122°28'0 0.0
2017-Oct-22 04:30N 47°31' W 122°28'0 0.0
2017-Oct-22 04:00N 47°31' W 122°28'0 0.0
2017-Oct-22 03:30N 47°31' W 122°28'3 5.6
2017-Oct-22 03:00N 47°31' W 122°24'3 5.6
2017-Oct-22 02:30N 47°31' W 122°28'0 0.5
2017-Oct-22 02:01N 47°31' W 122°28'3 5.5
2017-Oct-22 01:30N 47°31' W 122°24'3 5.5
2017-Oct-22 01:00N 47°31' W 122°28'1 2.7
2017-Oct-22 00:30N 47°31' W 122°30'2 4.5
2017-Oct-22 00:00N 47°31' W 122°26'2 3.2
2017-Oct-21 23:30N 47°31' W 122°24'3 5.3
2017-Oct-21 23:01N 47°31' W 122°28'0 0.3
2017-Oct-21 22:31N 47°31' W 122°28'3 5.7
2017-Oct-21 22:00N 47°31' W 122°24'3 5.5
2017-Oct-21 21:30N 47°31' W 122°28'3 5.6
2017-Oct-21 21:01N 47°31' W 122°24'3 5.5
2017-Oct-21 20:30N 47°31' W 122°28'1 1.7
2017-Oct-21 20:01N 47°31' W 122°29'3 6.8
2017-Oct-21 19:30N 47°31' W 122°24'2 3.1
2017-Oct-21 19:01N 47°31' W 122°26'2 5.0
2017-Oct-21 18:31N 47°31' W 122°30'3 5.1
2017-Oct-21 18:01N 47°31' W 122°26'1 1.1
2017-Oct-21 17:31N 47°31' W 122°25'3 5.9
2017-Oct-21 17:00N 47°31' W 122°30'1 2.6
2017-Oct-21 16:30N 47°31' W 122°28'3 5.6
2017-Oct-21 16:01N 47°31' W 122°24'3 5.6
2017-Oct-21 15:31N 47°31' W 122°28'0 0.8
2017-Oct-21 15:00N 47°31' W 122°28'0 0.1
2017-Oct-21 14:01N 47°31' W 122°28'0 0.1
2017-Oct-21 13:30N 47°31' W 122°28'3 5.6
2017-Oct-21 13:00N 47°31' W 122°24'3 5.5
2017-Oct-21 12:30N 47°31' W 122°28'0 0.0
2017-Oct-21 12:00N 47°31' W 122°28'0 0.0
2017-Oct-21 11:30N 47°31' W 122°28'0 0.0
2017-Oct-21 11:00N 47°31' W 122°28'0 0.0
2017-Oct-21 10:30N 47°31' W 122°28'0 0.0
2017-Oct-21 10:00N 47°31' W 122°28'0 0.0
2017-Oct-21 09:30N 47°31' W 122°28'0 0.0
2017-Oct-21 09:00N 47°31' W 122°28'0 0.0
2017-Oct-21 08:30N 47°31' W 122°28'0 0.0
2017-Oct-21 08:00N 47°31' W 122°28'0 0.0
2017-Oct-21 07:30N 47°31' W 122°28'0 0.0
2017-Oct-21 07:00N 47°31' W 122°28'0 0.0
2017-Oct-21 06:30N 47°31' W 122°28'0 0.0
2017-Oct-21 06:00N 47°31' W 122°28'0 0.0
2017-Oct-21 05:30N 47°31' W 122°28'0 0.0
2017-Oct-21 05:00N 47°31' W 122°28'0 0.0
2017-Oct-21 04:30N 47°31' W 122°28'0 0.0
2017-Oct-21 04:00N 47°31' W 122°28'0 0.0
2017-Oct-21 03:30N 47°31' W 122°28'0 0.0
2017-Oct-21 03:00N 47°31' W 122°28'0 0.0
2017-Oct-21 02:30N 47°31' W 122°28'3 5.6
2017-Oct-21 02:00N 47°31' W 122°24'3 5.5
2017-Oct-21 01:30N 47°31' W 122°28'3 5.5
2017-Oct-21 01:00N 47°31' W 122°24'3 5.6
2017-Oct-21 00:30N 47°31' W 122°28'1 2.7
2017-Oct-21 00:01N 47°31' W 122°30'3 6.8
2017-Oct-20 23:31N 47°32' W 122°25'1 1.4
2017-Oct-20 23:00N 47°32' W 122°26'2 3.2
2017-Oct-20 22:30N 47°31' W 122°28'3 5.6
2017-Oct-20 22:01N 47°31' W 122°24'4 8.1
2017-Oct-20 21:30N 47°31' W 122°30'2 3.0
2017-Oct-20 21:01N 47°31' W 122°28'2 4.8
2017-Oct-20 20:30N 47°31' W 122°24'4 7.9
2017-Oct-20 20:01N 47°31' W 122°30'2 4.0
2017-Oct-20 19:31N 47°31' W 122°27'1 3.0
2017-Oct-20 19:01N 47°31' W 122°25'2 4.5
2017-Oct-20 18:31N 47°31' W 122°28'3 5.6
2017-Oct-20 18:00N 47°31' W 122°24'3 5.6
2017-Oct-20 17:30N 47°31' W 122°28'1 1.1
2017-Oct-20 17:01N 47°31' W 122°28'3 6.1
2017-Oct-20 16:30N 47°31' W 122°24'3 5.5
2017-Oct-20 16:00N 47°31' W 122°28'2 3.8
2017-Oct-20 15:30N 47°31' W 122°25'1 1.8
2017-Oct-20 15:01N 47°31' W 122°26'1 1.0
2017-Oct-20 14:00N 47°31' W 122°28'1 2.7
2017-Oct-20 13:30N 47°31' W 122°30'2 3.3
2017-Oct-20 13:00N 47°31' W 122°27'2 3.6
2017-Oct-20 12:31N 47°31' W 122°25'3 6.8
2017-Oct-20 12:00N 47°31' W 122°30'4 7.3
2017-Oct-20 11:30N 47°31' W 122°24'2 4.8
2017-Oct-20 11:01N 47°31' W 122°28'0 0.1
2017-Oct-20 10:30N 47°31' W 122°28'0 0.0
2017-Oct-20 10:01N 47°31' W 122°28'0 0.0
2017-Oct-20 09:31N 47°31' W 122°28'0 0.0
2017-Oct-20 09:00N 47°31' W 122°28'0 0.0
2017-Oct-20 08:31N 47°31' W 122°28'0 0.0
2017-Oct-20 08:01N 47°31' W 122°28'0 0.0
2017-Oct-20 07:31N 47°31' W 122°28'0 0.0
2017-Oct-20 07:01N 47°31' W 122°28'0 0.0
2017-Oct-20 06:30N 47°31' W 122°28'0 0.0
2017-Oct-20 06:01N 47°31' W 122°28'0 0.0
2017-Oct-20 05:31N 47°31' W 122°28'0 0.0
2017-Oct-20 05:01N 47°31' W 122°28'0 0.0
2017-Oct-20 04:31N 47°31' W 122°28'0 0.0
2017-Oct-20 04:01N 47°31' W 122°28'0 0.0
2017-Oct-20 03:30N 47°31' W 122°28'0 0.0
2017-Oct-20 03:01N 47°31' W 122°28'0 0.0
2017-Oct-20 02:31N 47°31' W 122°28'3 5.5
2017-Oct-20 02:00N 47°31' W 122°24'3 5.5
2017-Oct-20 01:30N 47°31' W 122°28'3 5.5
2017-Oct-20 01:00N 47°31' W 122°24'3 5.6
2017-Oct-20 00:30N 47°31' W 122°28'1 2.7
2017-Oct-20 00:00N 47°31' W 122°30'3 6.6
2017-Oct-19 23:30N 47°31' W 122°25'0 0.9
2017-Oct-19 23:00N 47°31' W 122°25'2 4.5
2017-Oct-19 22:30N 47°31' W 122°28'3 5.6
2017-Oct-19 22:00N 47°31' W 122°24'4 8.1
2017-Oct-19 21:30N 47°31' W 122°30'1 2.6
2017-Oct-19 21:01N 47°31' W 122°28'3 5.6
2017-Oct-19 20:30N 47°31' W 122°24'4 8.1
2017-Oct-19 20:00N 47°31' W 122°30'2 4.3
2017-Oct-19 19:30N 47°31' W 122°27'1 1.4
2017-Oct-19 19:00N 47°31' W 122°26'1 3.0
2017-Oct-19 18:31N 47°31' W 122°28'3 5.6
2017-Oct-19 18:01N 47°31' W 122°24'3 5.5
2017-Oct-19 17:30N 47°31' W 122°28'0 0.5
2017-Oct-19 17:01N 47°31' W 122°28'3 5.7
2017-Oct-19 16:30N 47°31' W 122°24'3 5.6
2017-Oct-19 16:01N 47°31' W 122°28'2 4.8
2017-Oct-19 15:30N 47°31' W 122°24'2 4.6
2017-Oct-19 15:00N 47°31' W 122°28'3 5.4
2017-Oct-19 14:30N 47°31' W 122°24'3 5.5
2017-Oct-19 14:00N 47°31' W 122°28'1 2.7
2017-Oct-19 13:30N 47°31' W 122°30'2 3.4
2017-Oct-19 13:00N 47°31' W 122°27'2 3.6
2017-Oct-19 12:31N 47°31' W 122°25'4 7.0
2017-Oct-19 12:00N 47°31' W 122°30'4 7.2
2017-Oct-19 11:30N 47°31' W 122°25'2 4.7
2017-Oct-19 11:00N 47°31' W 122°28'0 0.1
2017-Oct-19 10:30N 47°31' W 122°28'0 0.0
2017-Oct-19 10:00N 47°31' W 122°28'0 0.0
2017-Oct-19 09:30N 47°31' W 122°28'0 0.0
2017-Oct-19 09:00N 47°31' W 122°28'0 0.0
2017-Oct-19 08:30N 47°31' W 122°28'0 0.0
2017-Oct-19 08:00N 47°31' W 122°28'0 0.0
2017-Oct-19 07:30N 47°31' W 122°28'0 0.0
2017-Oct-19 07:00N 47°31' W 122°28'0 0.0
2017-Oct-19 06:30N 47°31' W 122°28'0 0.0
2017-Oct-19 06:00N 47°31' W 122°28'0 0.0
2017-Oct-19 05:30N 47°31' W 122°28'0 0.0
2017-Oct-19 05:00N 47°31' W 122°28'0 0.0
2017-Oct-19 04:30N 47°31' W 122°28'0 0.0
2017-Oct-19 04:00N 47°31' W 122°28'0 0.0
2017-Oct-19 03:30N 47°31' W 122°28'0 0.0
2017-Oct-19 03:00N 47°31' W 122°28'0 0.2
2017-Oct-19 02:30N 47°31' W 122°28'3 5.4
2017-Oct-19 02:00N 47°31' W 122°24'3 5.6
2017-Oct-19 01:30N 47°31' W 122°28'3 5.6
2017-Oct-19 01:00N 47°31' W 122°24'3 5.5
2017-Oct-19 00:30N 47°31' W 122°28'1 2.7
2017-Oct-19 00:00N 47°31' W 122°30'3 6.5
2017-Oct-18 23:30N 47°32' W 122°25'0 0.7
2017-Oct-18 23:00N 47°32' W 122°26'2 3.5
2017-Oct-18 22:31N 47°31' W 122°28'3 5.6
2017-Oct-18 22:00N 47°31' W 122°24'4 8.1
2017-Oct-18 21:30N 47°31' W 122°30'1 2.6
2017-Oct-18 21:00N 47°31' W 122°28'3 5.2
2017-Oct-18 20:30N 47°31' W 122°24'4 7.7
2017-Oct-18 20:00N 47°31' W 122°30'2 4.1
2017-Oct-18 19:31N 47°31' W 122°27'1 2.8
2017-Oct-18 19:00N 47°31' W 122°25'2 4.4
2017-Oct-18 18:31N 47°31' W 122°28'3 5.6
2017-Oct-18 18:00N 47°31' W 122°24'3 5.5
2017-Oct-18 17:30N 47°31' W 122°28'0 0.9
2017-Oct-18 17:01N 47°31' W 122°28'3 6.0
2017-Oct-18 16:30N 47°31' W 122°24'3 5.6
2017-Oct-18 16:00N 47°31' W 122°28'2 4.4
2017-Oct-18 15:30N 47°32' W 122°25'2 3.7
2017-Oct-18 15:00N 47°31' W 122°27'0 0.3
2017-Oct-18 14:00N 47°31' W 122°28'1 2.7
2017-Oct-18 13:30N 47°31' W 122°30'2 3.4
2017-Oct-18 13:00N 47°31' W 122°27'2 3.0
2017-Oct-18 12:31N 47°31' W 122°25'3 6.4
2017-Oct-18 12:00N 47°31' W 122°30'4 7.8
2017-Oct-18 11:31N 47°31' W 122°24'3 5.2
2017-Oct-18 11:00N 47°31' W 122°28'0 0.3
2017-Oct-18 10:31N 47°31' W 122°28'0 0.0
2017-Oct-18 10:01N 47°31' W 122°28'0 0.0
2017-Oct-18 09:31N 47°31' W 122°28'0 0.0
2017-Oct-18 09:01N 47°31' W 122°28'0 0.0
2017-Oct-18 08:31N 47°31' W 122°28'0 0.0
2017-Oct-18 08:01N 47°31' W 122°28'0 0.0
2017-Oct-18 07:31N 47°31' W 122°28'0 0.0
2017-Oct-18 07:01N 47°31' W 122°28'0 0.0
2017-Oct-18 06:31N 47°31' W 122°28'0 0.0
2017-Oct-18 06:01N 47°31' W 122°28'0 0.0
2017-Oct-18 05:30N 47°31' W 122°28'0 0.0
2017-Oct-18 04:23N 47°31' W 122°28'0 0.0
2017-Oct-18 04:00N 47°31' W 122°28'0 0.0
2017-Oct-18 03:30N 47°31' W 122°28'0 0.0
2017-Oct-18 03:00N 47°31' W 122°28'0 0.0
2017-Oct-18 02:30N 47°31' W 122°28'3 5.6
2017-Oct-18 02:00N 47°31' W 122°24'3 5.5
2017-Oct-18 01:31N 47°31' W 122°28'3 5.5
2017-Oct-18 01:00N 47°31' W 122°24'3 5.6
2017-Oct-18 00:31N 47°31' W 122°28'1 2.7
2017-Oct-18 00:01N 47°31' W 122°30'2 4.5
2017-Oct-17 23:30N 47°31' W 122°27'1 1.5
2017-Oct-17 23:00N 47°31' W 122°25'2 3.5
2017-Oct-17 22:30N 47°31' W 122°28'3 5.8
2017-Oct-17 22:00N 47°31' W 122°24'4 8.1
2017-Oct-17 21:30N 47°31' W 122°30'1 2.6
2017-Oct-17 21:01N 47°31' W 122°28'3 5.6
2017-Oct-17 20:30N 47°31' W 122°24'4 8.1
2017-Oct-17 20:00N 47°31' W 122°30'2 4.1
2017-Oct-17 19:30N 47°31' W 122°27'1 2.5
2017-Oct-17 19:01N 47°31' W 122°25'2 4.1
2017-Oct-17 18:31N 47°31' W 122°28'3 5.6
2017-Oct-17 18:00N 47°31' W 122°24'3 5.6
2017-Oct-17 17:30N 47°31' W 122°28'1 1.1
2017-Oct-17 17:00N 47°31' W 122°28'3 6.0
2017-Oct-17 16:31N 47°31' W 122°24'3 5.5
2017-Oct-17 16:00N 47°31' W 122°28'2 3.5
2017-Oct-17 15:30N 47°31' W 122°25'1 1.5
2017-Oct-17 15:01N 47°31' W 122°26'2 3.6
2017-Oct-17 14:31N 47°31' W 122°24'3 5.4
2017-Oct-17 14:00N 47°31' W 122°28'1 2.7
2017-Oct-17 13:30N 47°31' W 122°30'2 4.6
2017-Oct-17 13:01N 47°31' W 122°26'1 1.5
2017-Oct-17 12:31N 47°31' W 122°25'3 6.1
2017-Oct-17 12:00N 47°31' W 122°30'3 6.2
2017-Oct-17 11:31N 47°31' W 122°25'2 3.7
2017-Oct-17 11:00N 47°31' W 122°28'0 0.0
2017-Oct-17 10:30N 47°31' W 122°28'0 0.0
2017-Oct-17 10:00N 47°31' W 122°28'0 0.0
2017-Oct-17 09:30N 47°31' W 122°28'0 0.0
2017-Oct-17 09:00N 47°31' W 122°28'0 0.0
2017-Oct-17 08:30N 47°31' W 122°28'0 0.0
2017-Oct-17 08:00N 47°31' W 122°28'0 0.0
2017-Oct-17 07:30N 47°31' W 122°28'0 0.0
2017-Oct-17 07:01N 47°31' W 122°28'0 0.0
2017-Oct-17 06:30N 47°31' W 122°28'0 0.0
2017-Oct-17 06:00N 47°31' W 122°28'0 0.0
2017-Oct-17 05:30N 47°31' W 122°28'0 0.0
2017-Oct-17 05:00N 47°31' W 122°28'0 0.0
2017-Oct-17 04:30N 47°31' W 122°28'0 0.0
2017-Oct-17 04:00N 47°31' W 122°28'0 0.0
2017-Oct-17 03:30N 47°31' W 122°28'0 0.0
2017-Oct-17 03:00N 47°31' W 122°28'0 0.0
2017-Oct-17 02:30N 47°31' W 122°28'3 5.5
2017-Oct-17 02:00N 47°31' W 122°24'3 5.5
2017-Oct-17 01:30N 47°31' W 122°28'3 5.6
2017-Oct-17 01:01N 47°31' W 122°24'3 5.5
2017-Oct-17 00:30N 47°31' W 122°28'1 2.7
2017-Oct-17 00:00N 47°31' W 122°30'4 8.1
2017-Oct-16 23:30N 47°31' W 122°24'3 5.6
2017-Oct-16 23:00N 47°31' W 122°28'0 0.6
2017-Oct-16 22:30N 47°31' W 122°28'3 5.7
2017-Oct-16 22:00N 47°31' W 122°24'4 8.1
2017-Oct-16 21:30N 47°31' W 122°30'1 2.6
2017-Oct-16 21:01N 47°31' W 122°28'3 5.3
2017-Oct-16 20:30N 47°31' W 122°24'4 7.8
2017-Oct-16 20:00N 47°31' W 122°30'2 4.2
2017-Oct-16 19:31N 47°31' W 122°27'1 1.8
2017-Oct-16 19:01N 47°31' W 122°25'1 2.8
2017-Oct-16 18:30N 47°31' W 122°27'2 4.8
2017-Oct-16 18:00N 47°31' W 122°24'3 5.4
2017-Oct-16 17:31N 47°31' W 122°28'0 0.4
2017-Oct-16 17:00N 47°31' W 122°28'3 5.6
2017-Oct-16 16:31N 47°31' W 122°24'3 5.6
2017-Oct-16 16:01N 47°31' W 122°28'2 3.7
2017-Oct-16 15:30N 47°31' W 122°25'1 1.4
2017-Oct-16 15:00N 47°31' W 122°26'2 3.3
2017-Oct-16 14:30N 47°31' W 122°24'4 4.1
2017-Oct-16 13:30N 47°31' W 122°30'2 3.5
2017-Oct-16 13:00N 47°31' W 122°27'2 3.7
2017-Oct-16 12:31N 47°31' W 122°25'4 7.1
2017-Oct-16 12:01N 47°31' W 122°30'4 7.5
2017-Oct-16 11:30N 47°31' W 122°24'2 5.0
2017-Oct-16 11:00N 47°31' W 122°28'3 6.6
2017-Oct-16 10:30N 47°34' W 122°28'816.4
2017-Oct-16 10:00N 47°42' W 122°28'816.0
2017-Oct-16 09:30N 47°50' W 122°28'816.1
2017-Oct-16 09:00N 47°57' W 122°34'1016.9
2017-Oct-16 08:26N 48°06' W 122°40'918.4
2017-Oct-16 07:58N 48°13' W 122°48'816.7
2017-Oct-16 07:30N 48°20' W 122°47'816.4
2017-Oct-16 07:00N 48°28' W 122°44'3 5.8
2017-Oct-16 06:29N 48°30' W 122°41'4 8.9
2017-Oct-16 06:00N 48°32' W 122°47'815.2
2017-Oct-16 05:30N 48°36' W 122°57'2 4.8
2017-Oct-16 05:00N 48°35' W 122°53'815.1
2017-Oct-16 04:30N 48°31' W 122°43'2 3.7
2017-Oct-16 04:00N 48°31' W 122°40'714.9
2017-Oct-16 03:31N 48°33' W 122°51'4 8.7
2017-Oct-16 03:00N 48°36' W 122°57'1 2.6
2017-Oct-16 02:30N 48°35' W 122°55'714.5
2017-Oct-16 02:00N 48°31' W 122°46'3 5.8
2017-Oct-16 01:25N 48°30' W 122°41'3 6.5
2017-Oct-16 01:01N 48°31' W 122°44'815.3
2017-Oct-16 00:30N 48°35' W 122°54'2 3.2
2017-Oct-16 00:00N 48°36' W 122°57'2 4.8
2017-Oct-15 23:30N 48°35' W 122°53'815.5
2017-Oct-15 23:00N 48°31' W 122°43'2 2.5
2017-Oct-15 22:19N 48°30' W 122°41'0 0.2
2017-Oct-15 22:00N 48°30' W 122°41'714.2
2017-Oct-15 21:30N 48°33' W 122°51'612.6
2017-Oct-15 21:00N 48°33' W 123°00'1 1.4
2017-Oct-15 20:31N 48°32' W 123°01'510.1
2017-Oct-15 20:00N 48°37' W 123°05'816.4
2017-Oct-15 19:30N 48°38' W 123°17'5 3.8
2017-Oct-15 18:18N 48°39' W 123°24'311.0
2017-Oct-15 18:01N 48°39' W 123°19'815.7
2017-Oct-15 17:30N 48°38' W 123°07'713.8
2017-Oct-15 17:00N 48°32' W 123°01'1 1.4
2017-Oct-15 16:30N 48°33' W 122°60'612.7
2017-Oct-15 16:00N 48°33' W 122°50'712.9
2017-Oct-15 15:29N 48°30' W 122°41'2 3.4
2017-Oct-15 15:00N 48°31' W 122°43'9 9.5
2017-Oct-15 14:00N 48°35' W 122°56'1 1.5
2017-Oct-15 13:24N 48°36' W 122°57'511.9
2017-Oct-15 13:00N 48°33' W 122°51'714.1
2017-Oct-15 12:30N 48°30' W 122°41'0 0.0
2017-Oct-15 12:00N 48°30' W 122°41'0 0.0
2017-Oct-15 11:30N 48°30' W 122°41'0 0.0
2017-Oct-15 10:42N 48°30' W 122°41'0 0.0
2017-Oct-15 10:28N 48°30' W 122°41'0 0.0
2017-Oct-15 09:55N 48°30' W 122°41'0 0.0
2017-Oct-15 09:30N 48°30' W 122°41'0 0.0
2017-Oct-15 08:58N 48°30' W 122°41'0 0.0
2017-Oct-15 08:29N 48°30' W 122°41'0 0.0
2017-Oct-15 07:59N 48°30' W 122°41'0 0.0
2017-Oct-15 07:29N 48°30' W 122°41'0 0.0
2017-Oct-15 06:59N 48°30' W 122°41'0 0.0
2017-Oct-15 06:30N 48°30' W 122°41'0 0.0
2017-Oct-15 06:00N 48°30' W 122°41'612.7
2017-Oct-15 05:30N 48°32' W 122°50'611.0
2017-Oct-15 04:59N 48°36' W 122°57'3 7.3
2017-Oct-15 04:31N 48°34' W 122°52'815.4
2017-Oct-15 04:01N 48°31' W 122°41'1 2.1
2017-Oct-15 03:31N 48°31' W 122°43'815.4
2017-Oct-15 03:01N 48°35' W 122°53'2 4.4
2017-Oct-15 02:30N 48°36' W 122°56'4 8.5
2017-Oct-15 02:00N 48°33' W 122°51'714.7
2017-Oct-15 01:30N 48°30' W 122°41'1 1.7
2017-Oct-15 01:00N 48°31' W 122°41'714.9
2017-Oct-15 00:30N 48°34' W 122°52'4 7.6
2017-Oct-15 00:00N 48°36' W 122°57'1 1.8
2017-Oct-14 23:30N 48°35' W 122°56'612.3
2017-Oct-14 23:00N 48°32' W 122°48'5 5.1
2017-Oct-14 22:01N 48°30' W 122°41'0 2.9
2017-Oct-14 22:00N 48°30' W 122°41'713.9
2017-Oct-14 21:30N 48°33' W 122°50'612.7
2017-Oct-14 21:01N 48°33' W 123°00'1 1.4
2017-Oct-14 20:30N 48°32' W 123°01'5 9.8
2017-Oct-14 20:00N 48°37' W 123°04'816.2
2017-Oct-14 19:30N 48°39' W 123°16'5 6.8
2017-Oct-14 18:44N 48°39' W 123°24'0 0.4
2017-Oct-14 18:30N 48°39' W 123°24'714.3
2017-Oct-14 18:00N 48°38' W 123°13'714.5
2017-Oct-14 17:30N 48°35' W 123°03'3 7.0
2017-Oct-14 17:00N 48°32' W 123°01'611.8
2017-Oct-14 16:31N 48°35' W 122°53'815.2
2017-Oct-14 16:00N 48°31' W 122°42'1 1.8
2017-Oct-14 15:12N 48°30' W 122°41'211.1
2017-Oct-14 15:00N 48°32' W 122°43'714.0
2017-Oct-14 14:31N 48°34' W 122°53'2 4.1
2017-Oct-14 14:00N 48°35' W 122°56'1 1.8
2017-Oct-14 13:30N 48°36' W 122°57'613.0
2017-Oct-14 13:00N 48°32' W 122°49'610.7
2017-Oct-14 12:29N 48°30' W 122°41'0 0.0
2017-Oct-14 11:58N 48°30' W 122°41'0 0.0
2017-Oct-14 08:40N 48°30' W 122°41'0 0.0
2017-Oct-14 08:19N 48°30' W 122°41'0 0.0
2017-Oct-14 07:54N 48°30' W 122°41'0 0.0
2017-Oct-14 07:21N 48°30' W 122°41'0 0.0
2017-Oct-14 07:00N 48°30' W 122°41'0 0.0
2017-Oct-14 06:30N 48°30' W 122°41'3 6.4
2017-Oct-14 06:00N 48°31' W 122°45'815.8
2017-Oct-14 05:30N 48°35' W 122°55'0 0.7
2017-Oct-14 05:00N 48°35' W 122°56'713.0
2017-Oct-14 04:30N 48°32' W 122°47'5 7.9
2017-Oct-14 03:55N 48°31' W 122°41'614.6
2017-Oct-14 03:31N 48°32' W 122°49'612.5
2017-Oct-14 03:00N 48°36' W 122°57'1 2.1
2017-Oct-14 02:31N 48°35' W 122°55'815.0
2017-Oct-14 02:00N 48°31' W 122°45'3 5.7
2017-Oct-14 01:25N 48°30' W 122°41'2 5.6
2017-Oct-14 01:01N 48°31' W 122°44'815.3
2017-Oct-14 00:31N 48°35' W 122°54'2 3.9
2017-Oct-14 00:00N 48°36' W 122°57'3 6.1
2017-Oct-13 23:30N 48°35' W 122°53'815.1
2017-Oct-13 23:01N 48°31' W 122°42'1 2.2
2017-Oct-13 22:22N 48°30' W 122°41'0 0.6
2017-Oct-13 22:00N 48°31' W 122°40'714.7
2017-Oct-13 21:30N 48°33' W 122°51'612.9
2017-Oct-13 21:00N 48°33' W 123°00'1 1.0
2017-Oct-13 20:30N 48°32' W 123°01'510.4
2017-Oct-13 20:00N 48°37' W 123°05'815.9
2017-Oct-13 19:30N 48°38' W 123°17'5 9.2
2017-Oct-13 18:59N 48°39' W 123°24'0 0.0
2017-Oct-13 18:30N 48°39' W 123°24'510.8
2017-Oct-13 18:00N 48°38' W 123°16'714.5
2017-Oct-13 17:31N 48°37' W 123°05'611.3
2017-Oct-13 17:00N 48°32' W 123°01'3 5.1
2017-Oct-13 16:30N 48°32' W 122°57'611.6
2017-Oct-13 16:00N 48°32' W 122°48'5 9.7
2017-Oct-13 15:28N 48°30' W 122°41'2 4.3
2017-Oct-13 15:01N 48°32' W 122°43'714.1
2017-Oct-13 14:30N 48°34' W 122°53'2 4.1
2017-Oct-13 14:00N 48°35' W 122°56'1 1.8
2017-Oct-13 13:29N 48°36' W 122°57'510.5
2017-Oct-13 13:01N 48°33' W 122°50'713.9
2017-Oct-13 12:30N 48°30' W 122°41'0 0.1
2017-Oct-13 11:58N 48°30' W 122°41'0 0.0
2017-Oct-13 11:30N 48°30' W 122°41'0 0.0
2017-Oct-13 10:59N 48°30' W 122°41'0 0.0
2017-Oct-13 10:29N 48°30' W 122°41'0 0.0
2017-Oct-13 09:42N 48°30' W 122°41'0 0.0
2017-Oct-13 09:26N 48°30' W 122°41'0 0.0
2017-Oct-13 06:31N 48°30' W 122°41'0 0.0
2017-Oct-13 06:30N 48°30' W 122°41'3 6.7
2017-Oct-13 06:00N 48°31' W 122°45'815.7
2017-Oct-13 05:30N 48°35' W 122°56'0 0.3
2017-Oct-13 05:01N 48°35' W 122°56'815.3
2017-Oct-13 04:30N 48°31' W 122°46'3 6.8
2017-Oct-13 04:00N 48°31' W 122°41'713.4
2017-Oct-13 03:31N 48°32' W 122°50'610.9
2017-Oct-13 03:00N 48°36' W 122°57'2 4.8
2017-Oct-13 02:30N 48°35' W 122°53'815.3
2017-Oct-13 02:00N 48°31' W 122°43'2 3.5
2017-Oct-13 01:29N 48°30' W 122°41'2 4.4
2017-Oct-13 01:00N 48°31' W 122°43'815.2
2017-Oct-13 00:30N 48°35' W 122°54'2 4.4
2017-Oct-13 00:00N 48°36' W 122°57'2 4.1
2017-Oct-12 23:30N 48°35' W 122°54'815.4
2017-Oct-12 23:01N 48°31' W 122°44'  

Dump ship's entire track history